Edgewood, Washington
Current Conditions -  °F | °C
As of 5:15 AM on Thursday 27 Nov 2014 (Local Time) from KTCM Reporting Station
Overcast Overcast  
Wind Chill: 11°   Ceiling: 3300
Heat Index: 11°   Visibility: 10mi
Dew Point: 11°   Wind: 15mph
Humidity: 100%   Direction: 190°S
Pressure: 29.86"   Gusts: NA
Location:  47.2018°N, 122.233°W
Report Text: KTCM 271315Z AUTO 19013KT 10SM OVC033 11/11 A2986 RMK AO2 RAB1304E1313DZE1258B1313E1315 $
Loading
Personal Weather Stations






























Interactive Weather Map New forecast layout! Learn more

10-Day Weather Forecast

Advertisements
Track Severe Weather on mobile